Departure ICAO
Arrival ICAO

The revolutionary moving map for travelling passengers has finally arrived
More information here

LFMD Cannes Mandelieu - EGKB Biggin Hill


Distance 545 NM


LFMN Nice Cote D'Azur VFR

METAR LFMN 241400Z VRB01KT 9999 SCT033 BKN060 16/06 Q1020 NOSIG

TAF LFMN 240800Z 2409/2515 33010KT 9999 FEW040 BECMG 2410/2412 16004KT


LFMD Cannes Mandelieu VFR

METAR LFMD 241400Z AUTO VRB01KT 9999 OVC054 15/09 Q1020 NOSIG

TAF LFMD 240800Z 2409/2509 VRB03KT 9999 FEW040 BECMG 2410/2412 10004KT


LFLB Chambery Aix Les Bains VFR

METAR LFLB 241400Z AUTO 14005KT 100V210 9999 FEW074 BKN160 15/05 Q1017 NOSIG

TAF LFLB 241100Z 2412/2512 21006KT CAVOK PROB30 TEMPO 2416/2424 -RA BECMG 2500/2502 -RA BKN060 BECMG 2503/2506 5000 RA SCT015 OVC035 PROB40 TEMPO 2503/2506 21015KT BECMG 2506/2509 34006KT


LFLS Grenoble Saint Geoirs VFR

METAR LFLS 241400Z AUTO 25003KT 210V310 9999 FEW066 BKN120 13/06 Q1018 NOSIG

TAF AMD LFLS 240901Z 2409/2509 08007KT CAVOK TEMPO 2409/2414 24012KT TEMPO 2414/2416 -RA BECMG 2503/2506 RA OVC060 BECMG 2503/2506 6000 RA SCT020 OVC035


LFLL Lyon Saint Exupery VFR CAVOK

METAR LFLL 241400Z 20020KT CAVOK 14/07 Q1016 NOSIG

TAF LFLL 241100Z 2412/2518 17015KT CAVOK TEMPO 2412/2414 18020G30KT BECMG 2423/2503 20020G30KT 7000 -RA SCT030 OVC060 TEMPO 2504/2509 3000 RA BECMG 2505/2507 33010KT BKN012 OVC020 BECMG 2509/2511 9999 NSW SCT020TCU BKN025 BECMG 2512/2514 SCT040


LFLY Lyon Bron VFR CAVOK

METAR LFLY 241400Z AUTO 17015KT CAVOK 15/08 Q1016 BECMG 18015G25KT

TAF LFLY 241100Z 2412/2512 18015G25KT CAVOK PROB40 TEMPO 2412/2418 -RA OVC060 PROB30 TEMPO 2418/2504 -RA OVC070 TEMPO 2503/2506 18020G30KT BECMG 2502/2504 6000 RA OVC025 BECMG 2506/2508 34006KT NSW


LFLN Saint Yan VFR

METAR LFLN 241400Z AUTO 00000KT 9999 -RA BKN036/// BKN043/// OVC050/// ///TCU 12/09 Q1016 TEMPO BKN022 OVC060

TAF LFLN 241100Z 2412/2421 20008KT 9999 BKN036 OVC070 TEMPO 2413/2416 -RA BKN022 OVC060 BECMG 2416/2418 18004KT BKN025


LFPM Melun Villaroche VFR

METAR LFPM 241400Z AUTO 27002KT 9999 SCT016 BKN210 11/08 Q1012


LFPO Paris Orly VFR

METAR LFPO 241400Z 26003KT 9999 FEW013 BKN220 11/07 Q1012 NOSIG

TAF LFPO 241100Z 2412/2518 30005KT 9999 BKN040 BECMG 2412/2414 24005KT TEMPO 2420/2501 2000 -SHRA BKN012 BKN030 BECMG 2501/2503 30005KT SCT030 TEMPO 2512/2515 30012G25KT 3000 SHRA BKN030TCU


LFPG Paris Charles De Gaulle VFR

METAR LFPG 241400Z VRB02KT 9999 FEW013 SCT220 10/07 Q1012 NOSIG

TAF LFPG 241100Z 2412/2518 26010KT 9999 BKN010 BECMG 2412/2414 SCT020 BKN050 PROB40 TEMPO 2501/2506 3000 -SHRA BKN010TCU PROB30 TEMPO 2512/2515 4000 -SHRA SCT015CB TX11/2415Z TN03/2518Z


LFPB Paris Le Bourget VFR

METAR LFPB 241400Z AUTO 00000KT 9999 FEW017 11/07 Q1012 BECMG 26010KT

TAF LFPB 241100Z 2412/2512 26010KT 9999 BKN010 BECMG 2412/2414 SCT020 BKN050 PROB40 TEMPO 2501/2506 3000 -SHRA BKN010TCU PROB30 TEMPO 2510/2512 SCT015CB


LFPV Villacoublay Velizy VFR

METAR LFPV 241400Z AUTO 25003KT 9999 FEW038 SCT180 10/07 Q1012 BECMG BKN012 BKN020

TAF LFPV 240800Z 2409/2509 25008KT 9999 BKN012 BKN020 PROB40 TEMPO 2409/2411 21010G20KT 4000 -DZRA BKN006 PROB40 TEMPO 2417/2501 5000 -RADZ BKN008 TEMPO 2501/2509 BKN006 PROB30 TEMPO 2501/2507 3000 BR OVC003


LFPN Toussous Le Noble VFR

METAR LFPN 241400Z AUTO VRB03KT 9999 FEW038 BKN180 BKN220 10/08 Q1012 NOSIG

TAF LFPN 241100Z 2412/2421 26005KT 9999 BKN030 BECMG 2412/2414 22005KT


LFPT Pontoise Cormeilles En Vexin VFR

METAR LFPT 241400Z AUTO 23004KT 9999 FEW018 BKN028 10/07 Q1012


LFOB Beauvais Tille VFR CB

METAR LFOB 241400Z AUTO 22004KT 180V260 9999 FEW022 BKN036 12/07 Q1011 TEMPO 3000 RA BKN008 BKN020CB

TAF AMD LFOB 241206Z 2412/2512 27004KT 9999 BKN020 TEMPO 2412/2502 3000 RA BKN008 BKN020CB


LFAT Le Tourquet Paris Plage VFR

METAR LFAT 241400Z AUTO VRB03KT 9999 RA BKN022/// BKN043/// OVC052/// ///TCU 10/07 Q1011 TEMPO 3000 SHRA BKN003 BKN015TCU

TAF LFAT 241100Z 2412/2421 16005KT 9999 BKN030 TEMPO 2412/2421 3000 SHRA BKN003 BKN015TCU


EGMD Lydd VFR

METAR EGMD 241420Z 01002KT 9999 FEW030 09/05 Q1011

TAF EGMD 241058Z 2412/2421 29004KT 9999 SCT025 PROB30 TEMPO 2412/2416 7000 SHRA


EGKA Shoreham By Sea Shoreham VFR

METAR EGKA 241420Z 03003KT 9999 SCT030 08/05 Q1011

TAF EGKA 241058Z 2412/2420 32004KT 9999 FEW040


EGKB Biggin Hill VFR CAVOK

METAR EGKB 241420Z VRB03KT CAVOK 07/03 Q1011

TAF EGKB 241058Z 2412/2421 28004KT CAVOK


EGKK London Gatwick VFR CAVOK

METAR EGKK 241420Z 33004KT 290V010 CAVOK 07/04 Q1011

TAF EGKK 241053Z 2412/2518 29004KT 9999 SCT040 PROB30 TEMPO 2504/2507 8000 -RA BKN012 BECMG 2509/2512 30014KT


EGLC London City VFR

METAR EGLC 241420Z AUTO VRB03KT 9999 NCD 08/01 Q1012

TAF EGLC 241058Z 2412/2421 29005KT CAVOK


EGSS London Stansted VFR

METAR EGSS 241420Z AUTO 24003KT 9999 NCD 06/01 Q1011

TAF EGSS 241058Z 2412/2518 29008KT 9999 FEW040


EGLL London Heathrow VFR

METAR EGLL 241420Z AUTO VRB03KT 9999 NCD 07/01 Q1012 NOSIG

TAF EGLL 241055Z 2412/2518 32005KT 9999 SCT030 PROB30 TEMPO 2502/2508 7000 PROB30 TEMPO 2511/2516 6000 SHRA


EGWU Northolt VFR CAVOK

METAR EGWU 241350Z 31003KT CAVOK 07/02 Q1012 NOSIG

TAF EGWU 241029Z 2412/2506 30003KT 9999 FEW035


EGLF Farnborough VFR CAVOK

METAR EGLF 241420Z 35004KT 310V010 CAVOK 07/04 Q1012

TAF EGLF 241058Z 2412/2421 30004KT CAVOK



NOTAMS LFMD

 NOTAMS EGKB